Time;durP1;ratioP1;P1;durP2;ratioP2;P2;SDS_P1;SDS_P2;PMS_P1;PMS_P2;Temp;Humidity;BMP_temperature;BMP_pressure;BME280_temperature;BME280_humidity;BME280_pressure;Samples;Min_cycle;Max_cycle;Signal;HPM_P1;HPM_P2
2022/04/22 00:00:07;;;;;;;3.70;2.47;;;15.80;99.90;;;;;;1044310;28;20599;-65
2022/04/22 00:00:38;;;;;;;4.47;2.78;;;15.80;99.90;;;;;;1044129;28;20017;-66
2022/04/22 00:01:09;;;;;;;3.55;3.15;;;15.80;99.90;;;;;;1040066;28;20075;-65
2022/04/22 00:01:40;;;;;;;3.90;2.70;;;15.80;99.90;;;;;;1040268;28;20013;-67
2022/04/22 00:02:10;;;;;;;4.43;2.90;;;15.80;99.90;;;;;;1040035;28;20417;-64
2022/04/22 00:02:41;;;;;;;3.53;2.67;;;15.80;99.90;;;;;;1040024;28;20067;-65
2022/04/22 00:03:11;;;;;;;3.13;2.80;;;15.80;99.90;;;;;;1039796;28;20037;-67
2022/04/22 00:03:42;;;;;;;2.90;2.60;;;15.80;99.90;;;;;;1039620;28;20124;-66
2022/04/22 00:04:14;;;;;;;3.80;2.90;;;15.80;99.90;;;;;;1039909;28;20105;-66
2022/04/22 00:04:44;;;;;;;4.20;3.25;;;15.80;99.90;;;;;;1039661;28;20033;-66
2022/04/22 00:05:16;;;;;;;3.63;3.30;;;15.80;99.90;;;;;;1040149;28;20018;-66
2022/04/22 00:05:46;;;;;;;5.03;3.20;;;15.80;99.90;;;;;;1038291;28;20025;-67
2022/04/22 00:06:17;;;;;;;5.10;3.10;;;15.80;99.90;;;;;;1040229;28;20061;-66
2022/04/22 00:06:47;;;;;;;4.47;3.60;;;15.80;99.90;;;;;;1040050;28;20032;-66
2022/04/22 00:07:18;;;;;;;3.67;2.80;;;15.80;99.90;;;;;;1040253;28;20032;-66
2022/04/22 00:07:48;;;;;;;3.40;2.87;;;15.80;99.90;;;;;;1039999;28;20025;-66
2022/04/22 00:08:21;;;;;;;4.47;3.23;;;15.80;99.90;;;;;;1040198;28;20100;-67
2022/04/22 00:08:52;;;;;;;4.45;3.33;;;15.80;99.90;;;;;;1040131;28;20025;-66
2022/04/22 00:09:22;;;;;;;4.03;2.93;;;15.80;99.90;;;;;;1040054;28;20009;-66
2022/04/22 00:09:53;;;;;;;4.67;3.43;;;15.70;99.90;;;;;;1040133;28;20667;-66
2022/04/22 00:10:23;;;;;;;3.97;3.30;;;15.70;99.90;;;;;;1040026;28;20021;-66
2022/04/22 00:11:43;;;;;;;3.70;3.25;;;15.70;99.90;;;;;;1039921;28;20539;-65
2022/04/22 00:12:14;;;;;;;5.63;3.17;;;15.70;99.90;;;;;;1040377;28;20633;-65
2022/04/22 00:12:44;;;;;;;3.60;2.90;;;15.70;99.90;;;;;;1039863;28;20026;-66
2022/04/22 00:13:15;;;;;;;3.60;2.60;;;15.70;99.90;;;;;;1040301;28;20022;-65
2022/04/22 00:13:46;;;;;;;3.77;2.70;;;15.70;99.90;;;;;;1040008;28;20021;-65
2022/04/22 00:14:16;;;;;;;3.50;3.07;;;15.70;99.90;;;;;;1040212;28;20045;-68
2022/04/22 00:14:48;;;;;;;3.40;2.93;;;15.70;99.90;;;;;;1039885;28;20453;-66
2022/04/22 00:15:20;;;;;;;7.50;3.47;;;15.70;99.90;;;;;;1039775;28;20014;-67
2022/04/22 00:15:51;;;;;;;3.50;3.10;;;15.70;99.90;;;;;;1039870;28;20016;-66
2022/04/22 00:16:22;;;;;;;4.40;3.50;;;15.70;99.90;;;;;;1039869;28;20028;-67
2022/04/22 00:16:52;;;;;;;3.50;3.13;;;15.70;99.90;;;;;;1039908;28;20021;-66
2022/04/22 00:17:23;;;;;;;3.23;2.93;;;15.70;99.90;;;;;;1040005;28;20263;-67
2022/04/22 00:17:53;;;;;;;3.20;2.53;;;15.70;99.90;;;;;;1039657;28;20022;-64
2022/04/22 00:18:24;;;;;;;3.53;3.23;;;15.60;99.90;;;;;;1039733;28;20013;-65
2022/04/22 00:18:55;;;;;;;5.00;2.87;;;15.60;99.90;;;;;;1039481;28;20026;-65
2022/04/22 00:19:25;;;;;;;4.93;3.03;;;15.70;99.90;;;;;;1039806;28;20014;-65
2022/04/22 00:19:56;;;;;;;6.77;3.57;;;15.70;99.90;;;;;;1040068;28;20248;-66
2022/04/22 00:20:27;;;;;;;3.30;2.60;;;15.70;99.90;;;;;;1039904;28;20450;-65
2022/04/22 00:20:57;;;;;;;4.33;3.27;;;15.70;99.90;;;;;;1040135;28;20020;-66
2022/04/22 00:21:28;;;;;;;3.65;3.25;;;15.70;99.90;;;;;;1040066;28;20162;-66
2022/04/22 00:21:59;;;;;;;3.80;3.03;;;15.70;99.90;;;;;;1040032;28;20002;-66
2022/04/22 00:22:29;;;;;;;3.87;3.13;;;15.70;99.90;;;;;;1040095;28;20798;-66
2022/04/22 00:23:00;;;;;;;5.40;3.20;;;15.70;99.90;;;;;;1040150;28;21028;-66
2022/04/22 00:23:30;;;;;;;3.60;2.60;;;15.70;99.90;;;;;;1040027;28;20010;-66
2022/04/22 00:24:01;;;;;;;4.30;3.23;;;15.70;99.90;;;;;;1039997;28;20045;-66
2022/04/22 00:24:31;;;;;;;2.73;2.43;;;15.70;99.90;;;;;;1040099;28;20088;-67
2022/04/22 00:25:02;;;;;;;3.70;3.23;;;15.60;99.90;;;;;;1039822;28;20020;-66
2022/04/22 00:25:32;;;;;;;3.73;3.07;;;15.70;99.90;;;;;;1040091;28;20113;-66
2022/04/22 00:26:03;;;;;;;3.10;2.60;;;15.60;99.90;;;;;;1040062;28;20483;-67
2022/04/22 00:26:33;;;;;;;4.03;3.00;;;15.60;99.90;;;;;;1039778;28;20460;-67
2022/04/22 00:27:04;;;;;;;3.60;3.00;;;15.60;99.90;;;;;;1039790;28;20109;-67
2022/04/22 00:27:36;;;;;;;3.30;2.53;;;15.60;99.90;;;;;;1039714;28;20049;-67
2022/04/22 00:28:06;;;;;;;4.05;3.65;;;15.60;99.90;;;;;;1039797;28;20024;-67
2022/04/22 00:28:37;;;;;;;4.03;3.63;;;15.60;99.90;;;;;;1039583;28;20029;-67
2022/04/22 00:29:08;;;;;;;3.30;2.60;;;15.60;99.90;;;;;;1039733;28;20014;-67
2022/04/22 00:29:38;;;;;;;4.57;3.20;;;15.60;99.90;;;;;;1039692;28;20040;-67
2022/04/22 00:30:11;;;;;;;3.70;2.80;;;15.60;99.90;;;;;;1039732;28;20048;-67
2022/04/22 00:30:41;;;;;;;3.88;3.20;;;15.60;99.90;;;;;;1039875;28;20492;-67
2022/04/22 00:31:13;;;;;;;4.67;3.13;;;15.60;99.90;;;;;;1040098;28;20505;-65
2022/04/22 00:31:43;;;;;;;4.18;3.20;;;15.60;99.90;;;;;;1039863;28;20010;-65
2022/04/22 00:32:14;;;;;;;4.17;3.33;;;15.60;99.90;;;;;;1040226;28;20048;-66
2022/04/22 00:32:44;;;;;;;4.43;2.93;;;15.60;99.90;;;;;;1039896;28;20508;-65
2022/04/22 00:33:15;;;;;;;5.10;3.03;;;15.60;99.90;;;;;;1040244;28;20032;-65
2022/04/22 00:33:46;;;;;;;4.13;3.17;;;15.60;99.90;;;;;;1039711;28;20105;-67
2022/04/22 00:34:17;;;;;;;3.97;3.00;;;15.60;99.90;;;;;;1040200;28;20009;-67
2022/04/22 00:34:47;;;;;;;3.03;2.67;;;15.60;99.90;;;;;;1039915;28;20018;-67
2022/04/22 00:35:18;;;;;;;3.50;3.00;;;15.60;99.90;;;;;;1040209;28;20436;-65
2022/04/22 00:35:49;;;;;;;3.57;3.20;;;15.60;99.90;;;;;;1039931;28;20049;-67
2022/04/22 00:36:19;;;;;;;3.90;3.30;;;15.60;99.90;;;;;;1039998;28;20108;-67
2022/04/22 00:36:50;;;;;;;3.17;2.83;;;15.60;99.90;;;;;;1039348;28;20010;-67
2022/04/22 00:37:20;;;;;;;4.03;2.70;;;15.60;99.90;;;;;;1039948;28;20121;-65
2022/04/22 00:37:51;;;;;;;4.27;3.23;;;15.60;99.90;;;;;;1039859;28;20100;-67
2022/04/22 00:38:21;;;;;;;3.63;3.20;;;15.60;99.90;;;;;;1039314;28;20099;-67
2022/04/22 00:38:52;;;;;;;4.80;3.10;;;15.60;99.90;;;;;;1039672;28;20671;-67
2022/04/22 00:39:22;;;;;;;6.17;3.00;;;15.60;99.90;;;;;;1039557;28;20045;-66
2022/04/22 00:39:53;;;;;;;4.00;3.27;;;15.60;99.90;;;;;;1039749;28;20101;-67
2022/04/22 00:40:24;;;;;;;3.93;2.97;;;15.60;99.90;;;;;;1039977;28;20024;-66
2022/04/22 00:40:55;;;;;;;4.43;3.43;;;15.60;99.90;;;;;;1040030;28;20009;-67
2022/04/22 00:41:26;;;;;;;3.90;3.00;;;15.60;99.90;;;;;;1039862;28;20358;-66
2022/04/22 00:41:56;;;;;;;3.65;2.75;;;15.60;99.90;;;;;;1039621;28;20483;-71
2022/04/22 00:42:28;;;;;;;3.53;2.93;;;15.60;99.90;;;;;;1039638;28;20012;-67
2022/04/22 00:42:59;;;;;;;3.65;3.03;;;15.50;99.90;;;;;;1039514;28;20141;-66
2022/04/22 00:43:44;;;;;;;4.60;3.00;;;15.50;99.90;;;;;;1039458;28;20010;-67
2022/04/22 00:44:14;;;;;;;4.43;2.80;;;15.50;99.90;;;;;;1035889;28;20465;-66
2022/04/22 00:44:45;;;;;;;3.43;3.00;;;15.50;99.90;;;;;;1035919;28;20671;-67
2022/04/22 00:45:18;;;;;;;3.00;2.73;;;15.50;99.90;;;;;;1035945;28;20013;-66
2022/04/22 00:45:49;;;;;;;4.93;3.05;;;15.50;99.90;;;;;;1035900;28;20614;-67
2022/04/22 00:46:20;;;;;;;3.45;3.15;;;15.50;99.90;;;;;;1035875;28;20457;-66
2022/04/22 00:46:51;;;;;;;3.40;3.07;;;15.50;99.90;;;;;;1035558;28;20461;-67
2022/04/22 00:47:21;;;;;;;5.97;3.43;;;15.50;99.90;;;;;;1035534;28;20008;-67
2022/04/22 00:47:52;;;;;;;3.77;2.63;;;15.50;99.90;;;;;;1035530;28;20016;-67
2022/04/22 00:48:22;;;;;;;3.80;3.40;;;15.50;99.90;;;;;;1035711;28;20008;-67
2022/04/22 00:48:53;;;;;;;5.13;3.47;;;15.50;99.90;;;;;;1035920;28;20010;-67
2022/04/22 00:49:23;;;;;;;4.43;3.70;;;15.50;99.90;;;;;;1035816;28;20089;-66
2022/04/22 00:49:54;;;;;;;3.80;3.23;;;15.50;99.90;;;;;;1035969;28;20006;-67
2022/04/22 00:50:25;;;;;;;3.67;3.00;;;15.50;99.90;;;;;;1035774;28;20662;-66
2022/04/22 00:50:56;;;;;;;4.20;3.10;;;15.50;99.90;;;;;;1035802;28;20017;-65
2022/04/22 00:51:26;;;;;;;4.10;2.97;;;15.50;99.90;;;;;;1035852;28;20010;-67
2022/04/22 00:51:57;;;;;;;4.03;2.93;;;15.50;99.90;;;;;;1035772;28;20380;-67
2022/04/22 00:52:28;;;;;;;3.53;2.77;;;15.50;99.90;;;;;;1035846;28;20465;-66
2022/04/22 00:52:59;;;;;;;4.22;3.83;;;15.40;99.90;;;;;;1035867;28;20002;-66
2022/04/22 00:53:31;;;;;;;3.67;3.27;;;15.50;99.90;;;;;;1035348;28;20010;-66
2022/04/22 00:54:03;;;;;;;4.35;3.40;;;15.40;99.90;;;;;;1035494;28;20014;-66
2022/04/22 00:54:34;;;;;;;3.38;3.03;;;15.40;99.90;;;;;;1038837;28;20002;-65
2022/04/22 00:55:06;;;;;;;5.37;3.60;;;15.40;99.90;;;;;;1039609;28;20032;-67
2022/04/22 00:55:40;;;;;;;4.93;3.20;;;15.40;99.90;;;;;;1039978;28;20350;-67
2022/04/22 00:56:11;;;;;;;3.78;3.30;;;15.40;99.90;;;;;;1039929;28;20376;-67
2022/04/22 00:56:42;;;;;;;5.85;3.20;;;15.40;99.90;;;;;;1039865;28;20464;-66
2022/04/22 00:57:15;;;;;;;3.22;2.92;;;15.40;99.90;;;;;;1039967;28;20016;-66
2022/04/22 00:57:45;;;;;;;3.15;2.85;;;15.40;99.90;;;;;;1039854;28;20010;-67
2022/04/22 00:58:16;;;;;;;3.43;2.90;;;15.40;99.90;;;;;;1040077;28;20585;-66
2022/04/22 00:58:49;;;;;;;3.47;3.10;;;15.40;99.90;;;;;;1039411;28;20656;-66
2022/04/22 00:59:20;;;;;;;3.63;2.92;;;15.40;99.90;;;;;;1039947;28;20575;-66
2022/04/22 00:59:51;;;;;;;3.25;2.72;;;15.40;99.90;;;;;;1039998;28;20164;-67
2022/04/22 01:00:22;;;;;;;4.57;3.50;;;15.40;99.90;;;;;;1039919;28;20037;-66
2022/04/22 01:00:52;;;;;;;4.03;2.90;;;15.40;99.90;;;;;;1039915;28;20053;-67
2022/04/22 01:01:23;;;;;;;3.80;2.87;;;15.40;99.90;;;;;;1039983;28;20013;-66
2022/04/22 01:01:53;;;;;;;6.97;3.00;;;15.40;99.90;;;;;;1039908;28;20667;-66
2022/04/22 01:02:24;;;;;;;3.70;2.80;;;15.40;99.90;;;;;;1039760;28;20017;-66
2022/04/22 01:02:55;;;;;;;3.83;3.27;;;15.40;99.90;;;;;;1039355;28;20021;-66
2022/04/22 01:03:25;;;;;;;5.07;3.17;;;15.30;99.90;;;;;;1038753;28;20075;-66
2022/04/22 01:09:47;;;;;;;4.55;3.10;;;15.30;99.90;;;;;;1035707;28;20028;-66
2022/04/22 01:10:18;;;;;;;3.53;2.92;;;15.30;99.90;;;;;;1035395;28;20018;-67
2022/04/22 01:10:49;;;;;;;2.97;2.50;;;15.30;99.90;;;;;;1035559;28;20018;-66
2022/04/22 01:11:20;;;;;;;4.83;3.20;;;15.30;99.90;;;;;;1035347;28;20347;-66
2022/04/22 01:11:51;;;;;;;4.32;3.15;;;15.30;99.90;;;;;;1035632;28;20076;-66
2022/04/22 01:12:22;;;;;;;3.37;2.70;;;15.30;99.90;;;;;;1035730;28;20172;-67
2022/04/22 01:12:52;;;;;;;3.43;2.83;;;15.30;99.90;;;;;;1035870;28;20018;-67
2022/04/22 01:13:24;;;;;;;4.77;3.47;;;15.30;99.90;;;;;;1035488;28;20014;-65
2022/04/22 01:13:55;;;;;;;5.00;3.53;;;15.30;99.90;;;;;;1035878;28;20531;-65
2022/04/22 01:14:26;;;;;;;5.00;3.17;;;15.20;99.90;;;;;;1037900;28;20010;-67
2022/04/22 01:14:58;;;;;;;4.80;2.88;;;15.30;99.90;;;;;;1039957;28;20017;-68
2022/04/22 01:15:29;;;;;;;4.15;3.33;;;15.30;99.90;;;;;;1039780;28;20461;-66
2022/04/22 01:16:00;;;;;;;4.03;3.40;;;15.30;99.90;;;;;;1039966;28;20036;-64
2022/04/22 01:16:31;;;;;;;4.00;3.47;;;15.30;99.90;;;;;;1039853;28;20022;-66
2022/04/22 01:17:01;;;;;;;5.47;3.10;;;15.30;99.90;;;;;;1039848;28;20025;-65
2022/04/22 01:17:32;;;;;;;4.20;3.07;;;15.30;99.90;;;;;;1039803;28;20044;-68
2022/04/22 01:18:04;;;;;;;3.30;2.83;;;15.30;99.90;;;;;;1039894;28;20075;-67
2022/04/22 01:18:35;;;;;;;4.97;3.20;;;15.30;99.90;;;;;;1039990;28;20020;-67
2022/04/22 01:19:05;;;;;;;5.20;3.85;;;15.30;99.90;;;;;;1039794;28;20032;-67
2022/04/22 01:19:36;;;;;;;3.57;2.97;;;15.20;99.90;;;;;;1039500;28;20047;-66
2022/04/22 01:20:07;;;;;;;3.87;3.00;;;15.20;99.90;;;;;;1039449;28;20041;-67
2022/04/22 01:20:37;;;;;;;3.70;2.97;;;15.20;99.90;;;;;;1039703;28;20100;-67
2022/04/22 01:21:08;;;;;;;3.27;2.90;;;15.20;99.90;;;;;;1039414;28;20025;-67
2022/04/22 01:21:39;;;;;;;3.80;3.30;;;15.20;99.90;;;;;;1039521;28;20048;-68
2022/04/22 01:22:09;;;;;;;3.83;2.67;;;15.20;99.90;;;;;;1039324;28;20033;-67
2022/04/22 01:22:40;;;;;;;4.43;3.37;;;15.20;99.90;;;;;;1035875;28;20046;-65
2022/04/22 01:23:11;;;;;;;3.40;3.10;;;15.20;99.90;;;;;;1035536;28;20049;-67
2022/04/22 01:23:41;;;;;;;3.88;3.08;;;15.20;99.90;;;;;;1035832;28;20026;-68
2022/04/22 01:24:12;;;;;;;3.73;2.97;;;15.20;99.90;;;;;;1035795;28;20029;-65
2022/04/22 01:24:42;;;;;;;3.67;2.80;;;15.20;99.90;;;;;;1035677;28;20485;-66
2022/04/22 01:25:13;;;;;;;4.93;2.97;;;15.20;99.90;;;;;;1039523;28;20029;-66
2022/04/22 01:25:44;;;;;;;3.23;2.77;;;15.20;99.90;;;;;;1039609;28;20017;-66
2022/04/22 01:26:15;;;;;;;3.53;3.13;;;15.10;99.90;;;;;;1039564;28;20026;-67
2022/04/22 01:26:46;;;;;;;3.83;2.83;;;15.20;99.90;;;;;;1039824;28;20026;-68
2022/04/22 01:27:17;;;;;;;3.25;2.85;;;15.20;99.90;;;;;;1039974;28;20260;-67
2022/04/22 01:27:50;;;;;;;2.85;2.28;;;15.10;99.90;;;;;;1039701;28;20017;-67
2022/04/22 01:28:22;;;;;;;3.33;3.00;;;15.10;99.90;;;;;;1039322;28;20515;-66
2022/04/22 01:28:53;;;;;;;4.07;2.60;;;15.10;99.90;;;;;;1039638;28;20020;-66
2022/04/22 01:29:24;;;;;;;3.63;3.00;;;15.10;99.90;;;;;;1039336;28;20092;-66
2022/04/22 01:30:00;;;;;;;3.58;2.83;;;15.10;99.90;;;;;;1036011;28;20029;-67
2022/04/22 01:30:30;;;;;;;7.03;3.40;;;15.10;99.90;;;;;;1039544;28;20020;-66
2022/04/22 01:31:01;;;;;;;3.43;2.70;;;15.10;99.90;;;;;;1039460;28;20029;-66
2022/04/22 01:31:32;;;;;;;3.20;2.90;;;15.10;99.90;;;;;;1036203;28;20121;-66
2022/04/22 01:32:02;;;;;;;4.53;3.00;;;15.10;99.90;;;;;;1039488;28;20022;-66
2022/04/22 01:32:33;;;;;;;3.60;3.10;;;15.10;99.90;;;;;;1039511;28;20033;-66
2022/04/22 01:33:04;;;;;;;3.90;3.20;;;15.10;99.90;;;;;;1039569;28;20053;-67
2022/04/22 01:33:34;;;;;;;4.30;3.47;;;15.10;99.90;;;;;;1039436;28;20022;-66
2022/04/22 01:34:05;;;;;;;3.83;2.97;;;15.10;99.90;;;;;;1039394;28;20025;-66
2022/04/22 01:34:35;;;;;;;4.57;3.43;;;15.10;99.90;;;;;;1039390;28;20033;-66
2022/04/22 01:35:06;;;;;;;4.60;2.47;;;15.10;99.90;;;;;;1039408;28;20017;-66
2022/04/22 01:35:37;;;;;;;5.15;3.45;;;15.10;99.90;;;;;;1039504;28;20064;-65
2022/04/22 01:36:08;;;;;;;4.97;2.93;;;15.10;99.90;;;;;;1039547;28;20687;-66
2022/04/22 01:36:39;;;;;;;3.53;3.17;;;15.10;99.90;;;;;;1039810;28;20092;-66
2022/04/22 01:37:10;;;;;;;4.53;3.47;;;15.10;99.90;;;;;;1039323;28;20013;-66
2022/04/22 01:37:42;;;;;;;4.70;3.27;;;15.00;99.90;;;;;;1039449;28;20105;-65
2022/04/22 01:38:12;;;;;;;4.97;3.30;;;15.00;99.90;;;;;;1039483;28;20095;-66
2022/04/22 01:38:43;;;;;;;3.67;3.13;;;15.00;99.90;;;;;;1039384;28;20018;-66
2022/04/22 01:39:14;;;;;;;3.77;2.57;;;15.00;99.90;;;;;;1039823;28;20030;-66
2022/04/22 01:39:44;;;;;;;4.10;2.93;;;15.00;99.90;;;;;;1039440;28;20012;-65
2022/04/22 01:40:15;;;;;;;4.57;3.33;;;15.00;99.90;;;;;;1039844;28;20002;-67
2022/04/22 01:40:46;;;;;;;3.75;3.03;;;15.00;99.90;;;;;;1039615;28;20010;-66
2022/04/22 01:41:16;;;;;;;4.43;3.07;;;15.00;99.90;;;;;;1039574;28;20353;-66
2022/04/22 01:41:47;;;;;;;5.03;3.30;;;15.00;99.90;;;;;;1039527;28;20519;-66
2022/04/22 01:42:18;;;;;;;4.27;3.40;;;15.00;99.90;;;;;;1039556;28;20337;-66
2022/04/22 01:42:49;;;;;;;6.13;3.50;;;15.00;99.90;;;;;;1039614;28;20704;-66
2022/04/22 01:43:19;;;;;;;3.40;3.10;;;15.00;99.90;;;;;;1039251;28;20488;-66
2022/04/22 01:43:50;;;;;;;3.07;2.73;;;15.00;99.90;;;;;;1037090;28;20033;-66
2022/04/22 01:44:21;;;;;;;4.32;3.30;;;15.00;99.90;;;;;;1035175;28;20417;-66
2022/04/22 01:44:51;;;;;;;4.50;3.70;;;15.00;99.90;;;;;;1031320;28;20162;-66
2022/04/22 01:45:22;;;;;;;3.60;2.53;;;15.00;99.90;;;;;;1035288;28;20010;-66
2022/04/22 01:45:53;;;;;;;3.97;3.13;;;15.00;99.90;;;;;;1035561;28;20425;-67
2022/04/22 01:46:23;;;;;;;5.33;3.70;;;15.00;99.90;;;;;;1039311;28;20010;-67
2022/04/22 01:46:55;;;;;;;4.53;3.27;;;15.00;99.90;;;;;;1039893;28;20014;-67
2022/04/22 01:47:25;;;;;;;7.35;3.70;;;15.00;99.90;;;;;;1039474;28;20648;-67
2022/04/22 01:47:56;;;;;;;4.60;3.37;;;15.00;99.90;;;;;;1039665;28;20468;-66
2022/04/22 01:48:27;;;;;;;3.42;3.13;;;15.00;99.90;;;;;;1039125;28;20009;-67
2022/04/22 01:48:58;;;;;;;3.33;2.67;;;15.00;99.90;;;;;;1035010;28;20505;-66
2022/04/22 01:49:28;;;;;;;4.53;3.28;;;15.00;99.90;;;;;;1035470;28;20407;-66
2022/04/22 01:49:59;;;;;;;3.63;2.63;;;15.00;99.90;;;;;;1039472;28;20636;-67
2022/04/22 01:50:30;;;;;;;4.75;3.42;;;15.00;99.90;;;;;;1039356;28;20096;-67
2022/04/22 01:51:01;;;;;;;2.90;2.60;;;15.00;99.90;;;;;;1041141;28;20411;-67
2022/04/22 01:51:31;;;;;;;3.93;3.53;;;15.00;99.90;;;;;;1039534;28;20013;-66
2022/04/22 01:52:02;;;;;;;3.87;3.47;;;15.00;99.90;;;;;;1039688;28;20498;-67
2022/04/22 01:52:34;;;;;;;4.13;3.10;;;15.00;99.90;;;;;;1039690;28;20009;-66
2022/04/22 01:53:06;;;;;;;3.83;2.88;;;15.00;99.90;;;;;;1039698;28;20645;-66
2022/04/22 01:53:37;;;;;;;4.03;2.92;;;15.00;99.90;;;;;;1039677;28;20009;-67
2022/04/22 01:54:07;;;;;;;4.10;3.20;;;15.00;99.90;;;;;;1039732;28;20021;-67
2022/04/22 01:54:38;;;;;;;3.83;3.03;;;15.00;99.90;;;;;;1039688;28;20009;-68
2022/04/22 01:55:09;;;;;;;4.77;3.90;;;14.90;99.90;;;;;;1039253;28;20022;-67
2022/04/22 01:55:39;;;;;;;6.23;3.20;;;14.90;99.90;;;;;;1031227;28;20077;-67
2022/04/22 01:56:10;;;;;;;4.33;2.57;;;14.90;99.90;;;;;;1027218;28;20051;-66
2022/04/22 01:56:40;;;;;;;4.70;3.13;;;14.90;99.90;;;;;;1027377;28;20554;-65
2022/04/22 01:57:11;;;;;;;4.33;2.97;;;14.90;99.90;;;;;;1031514;28;20019;-67
2022/04/22 01:57:42;;;;;;;3.90;3.23;;;14.90;99.90;;;;;;1031135;28;20060;-66
2022/04/22 01:58:12;;;;;;;4.28;3.45;;;14.90;99.90;;;;;;1031405;28;20697;-66
2022/04/22 01:58:43;;;;;;;3.80;3.07;;;14.90;99.90;;;;;;1034839;28;20085;-67
2022/04/22 01:59:13;;;;;;;3.43;3.00;;;14.90;99.90;;;;;;1035500;28;20096;-67
2022/04/22 01:59:46;;;;;;;3.23;2.90;;;14.90;99.90;;;;;;1039402;28;20477;-67
2022/04/22 02:00:17;;;;;;;3.67;3.10;;;14.90;99.90;;;;;;1039420;28;20084;-67
2022/04/22 02:00:47;;;;;;;4.17;3.07;;;14.90;99.90;;;;;;1039295;28;20160;-66
2022/04/22 02:01:18;;;;;;;5.87;3.20;;;14.90;99.90;;;;;;1039638;28;20018;-66
2022/04/22 02:01:48;;;;;;;4.73;2.77;;;14.90;99.90;;;;;;1039584;28;20087;-67
2022/04/22 02:02:19;;;;;;;3.97;2.80;;;14.90;99.90;;;;;;1039710;28;20096;-67
2022/04/22 02:02:49;;;;;;;3.80;2.80;;;14.90;99.90;;;;;;1039292;28;20020;-68
2022/04/22 02:03:20;;;;;;;4.93;2.77;;;14.90;99.90;;;;;;1039261;28;20033;-67
2022/04/22 02:03:50;;;;;;;4.77;3.23;;;14.90;99.90;;;;;;1039382;28;20017;-67
2022/04/22 02:04:21;;;;;;;3.63;2.40;;;14.90;99.90;;;;;;1039274;28;20048;-66
2022/04/22 02:04:52;;;;;;;4.23;3.23;;;14.90;99.90;;;;;;1039495;28;20489;-67
2022/04/22 02:05:22;;;;;;;3.90;2.87;;;14.90;99.90;;;;;;1039082;28;20020;-68
2022/04/22 02:05:53;;;;;;;5.03;3.07;;;14.90;99.90;;;;;;1039264;28;20044;-67
2022/04/22 02:06:23;;;;;;;4.17;3.13;;;14.90;99.90;;;;;;1039249;28;20097;-67
2022/04/22 02:06:54;;;;;;;3.53;3.03;;;14.90;99.90;;;;;;1039364;28;20029;-66
2022/04/22 02:07:24;;;;;;;3.83;3.27;;;14.90;99.90;;;;;;1035448;28;20453;-66
2022/04/22 02:07:55;;;;;;;4.33;3.03;;;14.90;99.90;;;;;;1035732;28;20025;-67
2022/04/22 02:08:25;;;;;;;4.63;3.20;;;14.90;99.90;;;;;;1035303;28;20022;-67
2022/04/22 02:08:57;;;;;;;3.63;2.80;;;14.90;99.90;;;;;;1035739;28;20032;-66
2022/04/22 02:09:28;;;;;;;4.05;3.20;;;14.80;99.90;;;;;;1035488;28;20018;-67
2022/04/22 02:09:58;;;;;;;6.15;3.13;;;14.90;99.90;;;;;;1035697;28;20015;-67
2022/04/22 02:10:29;;;;;;;4.83;3.20;;;14.80;99.90;;;;;;1036092;28;20056;-67
2022/04/22 02:10:59;;;;;;;4.97;3.40;;;14.80;99.90;;;;;;1039566;28;20397;-68
2022/04/22 02:11:30;;;;;;;3.70;3.37;;;14.80;99.90;;;;;;1039446;28;20075;-67
2022/04/22 02:12:01;;;;;;;5.50;3.33;;;14.80;99.90;;;;;;1039748;28;20045;-67
2022/04/22 02:12:32;;;;;;;3.28;2.78;;;14.80;99.90;;;;;;1039222;28;20432;-68
2022/04/22 02:13:03;;;;;;;5.77;3.60;;;14.80;99.90;;;;;;1039336;28;20445;-67
2022/04/22 02:13:36;;;;;;;3.70;2.80;;;14.80;99.90;;;;;;1039213;28;20001;-67
2022/04/22 02:14:07;;;;;;;5.72;3.05;;;14.80;99.90;;;;;;1039408;28;20013;-67
2022/04/22 02:14:38;;;;;;;3.60;3.10;;;14.80;99.90;;;;;;1039301;28;20009;-67
2022/04/22 02:15:09;;;;;;;3.37;3.07;;;14.80;99.90;;;;;;1035224;28;20105;-68
2022/04/22 02:15:39;;;;;;;4.03;3.43;;;14.80;99.90;;;;;;1035458;28;20041;-68
2022/04/22 02:16:10;;;;;;;4.53;3.50;;;14.80;99.90;;;;;;1039341;28;20017;-66
2022/04/22 02:16:40;;;;;;;4.20;3.27;;;14.80;99.90;;;;;;1039239;28;20014;-66
2022/04/22 02:17:11;;;;;;;3.93;2.90;;;14.80;99.90;;;;;;1039330;28;20641;-67
2022/04/22 02:17:41;;;;;;;4.53;3.47;;;14.80;99.90;;;;;;1039367;28;20016;-67
2022/04/22 02:18:12;;;;;;;3.70;2.90;;;14.80;99.90;;;;;;1039341;28;20083;-68
2022/04/22 02:18:43;;;;;;;3.30;2.77;;;14.80;99.90;;;;;;1039152;28;20084;-67
2022/04/22 02:19:14;;;;;;;5.67;3.40;;;14.80;99.90;;;;;;1039286;28;20026;-67
2022/04/22 02:19:45;;;;;;;4.50;3.05;;;14.80;99.90;;;;;;1039250;28;20549;-67
2022/04/22 02:20:15;;;;;;;4.20;2.87;;;14.80;99.90;;;;;;1039677;28;20523;-66
2022/04/22 02:20:46;;;;;;;3.63;3.00;;;14.80;99.90;;;;;;1039515;28;20144;-67
2022/04/22 02:21:16;;;;;;;3.93;2.93;;;14.70;99.90;;;;;;1039688;28;20177;-66
2022/04/22 02:21:47;;;;;;;5.10;2.90;;;14.70;99.90;;;;;;1039658;28;20085;-68
2022/04/22 02:22:18;;;;;;;5.30;3.28;;;14.70;99.90;;;;;;1039479;28;20064;-66
2022/04/22 02:22:48;;;;;;;3.90;2.90;;;14.70;99.90;;;;;;1039231;28;20021;-67
2022/04/22 02:23:19;;;;;;;3.67;2.87;;;14.70;99.90;;;;;;1039213;28;20048;-68
2022/04/22 02:23:49;;;;;;;3.73;3.00;;;14.70;99.90;;;;;;1035164;28;20022;-67
2022/04/22 02:24:20;;;;;;;4.40;3.40;;;14.70;99.90;;;;;;1035137;28;20076;-65
2022/04/22 02:24:50;;;;;;;5.33;3.50;;;14.70;99.90;;;;;;1034953;28;20018;-66
2022/04/22 02:25:21;;;;;;;5.97;3.10;;;14.70;99.90;;;;;;1035072;28;20021;-67
2022/04/22 02:25:51;;;;;;;3.73;2.93;;;14.70;99.90;;;;;;1035346;28;20022;-67
2022/04/22 02:26:22;;;;;;;3.43;2.73;;;14.70;99.90;;;;;;1035008;28;20056;-67
2022/04/22 02:28:34;;;;;;;4.38;2.85;;;14.70;99.90;;;;;;1039349;28;20121;-67
2022/04/22 02:29:04;;;;;;;6.28;3.50;;;14.70;99.90;;;;;;1039305;28;20390;-67
2022/04/22 02:29:37;;;;;;;4.00;3.10;;;14.70;99.90;;;;;;1039057;28;20506;-67
2022/04/22 02:30:08;;;;;;;5.20;3.30;;;14.70;99.90;;;;;;1035897;28;20030;-66
2022/04/22 02:30:39;;;;;;;4.05;3.33;;;14.70;99.90;;;;;;1035168;28;20030;-67
2022/04/22 02:31:11;;;;;;;3.90;3.27;;;14.70;99.90;;;;;;1035254;28;20033;-67
2022/04/22 02:31:41;;;;;;;4.28;3.20;;;14.70;99.90;;;;;;1035255;28;20108;-67
2022/04/22 02:32:12;;;;;;;4.40;3.00;;;14.70;99.90;;;;;;1035605;28;20447;-68
2022/04/22 02:32:42;;;;;;;4.03;2.77;;;14.70;99.90;;;;;;1035467;28;20033;-68
2022/04/22 02:33:14;;;;;;;3.10;2.73;;;14.70;99.90;;;;;;1035709;28;20516;-67
2022/04/22 02:33:44;;;;;;;3.80;3.33;;;14.70;99.90;;;;;;1034938;28;20021;-68
2022/04/22 02:34:16;;;;;;;4.27;3.10;;;14.70;99.90;;;;;;1035199;28;20022;-67
2022/04/22 02:34:46;;;;;;;3.65;2.60;;;14.70;99.90;;;;;;1034972;28;20014;-68
2022/04/22 02:35:21;;;;;;;4.30;2.90;;;14.70;99.90;;;;;;1035322;28;20041;-67
2022/04/22 02:35:52;;;;;;;4.55;2.70;;;14.70;99.90;;;;;;1036830;28;20393;-68
2022/04/22 02:36:22;;;;;;;3.17;2.87;;;14.70;99.90;;;;;;1039489;28;20481;-68
2022/04/22 02:36:53;;;;;;;4.97;2.90;;;14.70;99.90;;;;;;1039640;28;20108;-68
2022/04/22 02:37:23;;;;;;;5.83;3.30;;;14.70;99.90;;;;;;1039141;28;20072;-67
2022/04/22 02:37:54;;;;;;;4.27;2.90;;;14.70;99.90;;;;;;1039373;28;20537;-68
2022/04/22 02:38:25;;;;;;;4.07;3.37;;;14.70;99.90;;;;;;1039222;28;20552;-67
2022/04/22 02:38:55;;;;;;;5.20;2.90;;;14.70;99.90;;;;;;1035156;28;20096;-67
2022/04/22 02:39:26;;;;;;;3.27;2.70;;;14.70;99.90;;;;;;1039261;28;20472;-67
2022/04/22 02:39:56;;;;;;;5.00;3.23;;;14.70;99.90;;;;;;1039082;28;20014;-67
2022/04/22 02:45:28;;;;;;;5.40;3.10;;;14.70;99.90;;;;;;1039284;28;20072;-67
2022/04/22 02:45:58;;;;;;;4.38;3.42;;;14.70;99.90;;;;;;1039501;28;20018;-67
2022/04/22 02:46:29;;;;;;;4.97;3.30;;;14.70;99.90;;;;;;1039346;28;20028;-67
2022/04/22 02:46:59;;;;;;;5.10;3.20;;;14.70;99.90;;;;;;1040696;28;20524;-66
2022/04/22 02:47:30;;;;;;;5.00;3.07;;;14.60;99.90;;;;;;1039119;28;20109;-68
2022/04/22 02:48:00;;;;;;;4.73;2.63;;;14.60;99.90;;;;;;1039174;28;20021;-65
2022/04/22 02:48:31;;;;;;;3.97;2.93;;;14.60;99.90;;;;;;1039198;28;20049;-67
2022/04/22 02:49:01;;;;;;;5.30;3.60;;;14.60;99.90;;;;;;1039213;28;20394;-67
2022/04/22 02:49:32;;;;;;;5.73;3.10;;;14.60;99.90;;;;;;1039434;28;20052;-68
2022/04/22 02:50:03;;;;;;;3.43;2.87;;;14.60;99.90;;;;;;1039249;28;20014;-68
2022/04/22 02:50:34;;;;;;;2.75;2.40;;;14.60;99.90;;;;;;1039132;28;20017;-68
2022/04/22 02:51:05;;;;;;;4.50;3.20;;;14.60;99.90;;;;;;1039351;28;20028;-68
2022/04/22 02:51:35;;;;;;;3.58;2.92;;;14.60;99.90;;;;;;1039080;28;20026;-67
2022/04/22 02:52:06;;;;;;;3.03;2.73;;;14.60;99.90;;;;;;1039598;28;20022;-67
2022/04/22 02:52:37;;;;;;;5.23;3.27;;;14.60;99.90;;;;;;1039309;28;20052;-67
2022/04/22 02:53:07;;;;;;;4.63;3.27;;;14.60;99.90;;;;;;1039281;28;20022;-67
2022/04/22 02:53:38;;;;;;;4.87;3.00;;;14.60;99.90;;;;;;1034946;28;20014;-67
2022/04/22 02:54:09;;;;;;;3.38;2.75;;;14.60;99.90;;;;;;1035320;28;20040;-67